sensor_id;sensor_type;location;lat;lon;timestamp;P1;durP1;ratioP1;P2;durP2;ratioP2
17866;SDS011;9059;49.934;8.650;2023-01-29T00:00:15;4.37;;;2.17;;
17866;SDS011;9059;49.934;8.650;2023-01-29T00:01:19;3.70;;;2.00;;
17866;SDS011;9059;49.934;8.650;2023-01-29T00:02:21;4.63;;;1.90;;
17866;SDS011;9059;49.934;8.650;2023-01-29T00:03:24;4.17;;;2.00;;
17866;SDS011;9059;49.934;8.650;2023-01-29T00:04:27;4.30;;;1.67;;
17866;SDS011;9059;49.934;8.650;2023-01-29T00:05:29;4.13;;;1.80;;
17866;SDS011;9059;49.934;8.650;2023-01-29T00:06:31;7.37;;;2.53;;
17866;SDS011;9059;49.934;8.650;2023-01-29T00:07:34;8.17;;;2.70;;
17866;SDS011;9059;49.934;8.650;2023-01-29T00:08:36;9.23;;;2.83;;
17866;SDS011;9059;49.934;8.650;2023-01-29T00:09:39;5.40;;;2.20;;
17866;SDS011;9059;49.934;8.650;2023-01-29T00:10:41;9.33;;;2.60;;
17866;SDS011;9059;49.934;8.650;2023-01-29T00:11:44;3.93;;;2.30;;
17866;SDS011;9059;49.934;8.650;2023-01-29T00:12:47;3.50;;;1.83;;
17866;SDS011;9059;49.934;8.650;2023-01-29T00:13:49;3.00;;;1.73;;
17866;SDS011;9059;49.934;8.650;2023-01-29T00:14:52;6.33;;;2.40;;
17866;SDS011;9059;49.934;8.650;2023-01-29T00:15:55;4.13;;;1.90;;
17866;SDS011;9059;49.934;8.650;2023-01-29T00:16:58;3.37;;;1.87;;
17866;SDS011;9059;49.934;8.650;2023-01-29T00:18:00;4.27;;;2.10;;
17866;SDS011;9059;49.934;8.650;2023-01-29T00:19:03;3.93;;;1.87;;
17866;SDS011;9059;49.934;8.650;2023-01-29T00:20:07;4.30;;;2.03;;
17866;SDS011;9059;49.934;8.650;2023-01-29T00:21:10;3.57;;;2.07;;
17866;SDS011;9059;49.934;8.650;2023-01-29T00:22:13;4.93;;;2.07;;
17866;SDS011;9059;49.934;8.650;2023-01-29T00:23:16;3.90;;;2.00;;
17866;SDS011;9059;49.934;8.650;2023-01-29T00:24:18;2.73;;;1.50;;
17866;SDS011;9059;49.934;8.650;2023-01-29T00:25:20;3.33;;;2.00;;
17866;SDS011;9059;49.934;8.650;2023-01-29T00:26:22;3.20;;;1.73;;
17866;SDS011;9059;49.934;8.650;2023-01-29T00:27:25;3.60;;;1.93;;
17866;SDS011;9059;49.934;8.650;2023-01-29T00:28:27;3.20;;;1.70;;
17866;SDS011;9059;49.934;8.650;2023-01-29T00:29:29;4.33;;;1.80;;
17866;SDS011;9059;49.934;8.650;2023-01-29T00:30:31;3.90;;;2.10;;
17866;SDS011;9059;49.934;8.650;2023-01-29T00:31:34;7.50;;;2.20;;
17866;SDS011;9059;49.934;8.650;2023-01-29T00:32:36;3.60;;;2.10;;
17866;SDS011;9059;49.934;8.650;2023-01-29T00:33:39;4.17;;;2.00;;
17866;SDS011;9059;49.934;8.650;2023-01-29T00:34:40;4.93;;;1.93;;
17866;SDS011;9059;49.934;8.650;2023-01-29T00:35:44;4.63;;;2.00;;
17866;SDS011;9059;49.934;8.650;2023-01-29T00:36:46;8.60;;;2.50;;
17866;SDS011;9059;49.934;8.650;2023-01-29T00:37:49;3.57;;;2.00;;
17866;SDS011;9059;49.934;8.650;2023-01-29T00:38:53;4.10;;;2.10;;
17866;SDS011;9059;49.934;8.650;2023-01-29T00:39:59;3.37;;;1.87;;
17866;SDS011;9059;49.934;8.650;2023-01-29T00:41:04;3.57;;;2.00;;
17866;SDS011;9059;49.934;8.650;2023-01-29T00:42:24;4.13;;;1.90;;
17866;SDS011;9059;49.934;8.650;2023-01-29T00:43:45;4.97;;;1.80;;
17866;SDS011;9059;49.934;8.650;2023-01-29T00:45:06;5.10;;;1.93;;
17866;SDS011;9059;49.934;8.650;2023-01-29T00:46:09;3.93;;;2.10;;
17866;SDS011;9059;49.934;8.650;2023-01-29T00:47:11;4.50;;;1.90;;
17866;SDS011;9059;49.934;8.650;2023-01-29T00:48:27;4.30;;;2.10;;
17866;SDS011;9059;49.934;8.650;2023-01-29T00:49:30;4.23;;;1.87;;
17866;SDS011;9059;49.934;8.650;2023-01-29T00:50:32;3.43;;;2.00;;
17866;SDS011;9059;49.934;8.650;2023-01-29T00:51:37;4.00;;;2.10;;
17866;SDS011;9059;49.934;8.650;2023-01-29T00:52:39;6.90;;;2.07;;
17866;SDS011;9059;49.934;8.650;2023-01-29T00:53:42;9.53;;;2.10;;
17866;SDS011;9059;49.934;8.650;2023-01-29T00:54:44;3.60;;;2.27;;
17866;SDS011;9059;49.934;8.650;2023-01-29T00:55:46;4.50;;;2.20;;
17866;SDS011;9059;49.934;8.650;2023-01-29T00:56:48;4.03;;;1.77;;
17866;SDS011;9059;49.934;8.650;2023-01-29T00:57:51;3.50;;;2.00;;
17866;SDS011;9059;49.934;8.650;2023-01-29T00:58:54;3.77;;;2.03;;
17866;SDS011;9059;49.934;8.650;2023-01-29T00:59:55;4.33;;;1.67;;
17866;SDS011;9059;49.934;8.650;2023-01-29T01:00:59;3.63;;;2.37;;
17866;SDS011;9059;49.934;8.650;2023-01-29T01:02:02;4.43;;;1.90;;
17866;SDS011;9059;49.934;8.650;2023-01-29T01:03:22;3.27;;;1.80;;
17866;SDS011;9059;49.934;8.650;2023-01-29T01:04:25;5.43;;;1.90;;
17866;SDS011;9059;49.934;8.650;2023-01-29T01:05:27;4.17;;;2.03;;
17866;SDS011;9059;49.934;8.650;2023-01-29T01:06:30;2.90;;;2.10;;
17866;SDS011;9059;49.934;8.650;2023-01-29T01:07:33;4.50;;;2.10;;
17866;SDS011;9059;49.934;8.650;2023-01-29T01:08:36;4.27;;;2.13;;
17866;SDS011;9059;49.934;8.650;2023-01-29T01:09:56;4.90;;;2.00;;
17866;SDS011;9059;49.934;8.650;2023-01-29T01:11:18;5.97;;;2.10;;
17866;SDS011;9059;49.934;8.650;2023-01-29T01:12:21;4.97;;;2.13;;
17866;SDS011;9059;49.934;8.650;2023-01-29T01:13:22;3.80;;;2.13;;
17866;SDS011;9059;49.934;8.650;2023-01-29T01:14:25;3.43;;;1.90;;
17866;SDS011;9059;49.934;8.650;2023-01-29T01:15:28;6.07;;;2.43;;
17866;SDS011;9059;49.934;8.650;2023-01-29T01:16:33;6.27;;;2.33;;
17866;SDS011;9059;49.934;8.650;2023-01-29T01:17:35;6.33;;;2.60;;
17866;SDS011;9059;49.934;8.650;2023-01-29T01:18:37;4.53;;;2.10;;
17866;SDS011;9059;49.934;8.650;2023-01-29T01:19:39;5.27;;;2.13;;
17866;SDS011;9059;49.934;8.650;2023-01-29T01:20:42;3.97;;;2.27;;
17866;SDS011;9059;49.934;8.650;2023-01-29T01:21:44;4.60;;;2.37;;
17866;SDS011;9059;49.934;8.650;2023-01-29T01:22:50;4.63;;;2.37;;
17866;SDS011;9059;49.934;8.650;2023-01-29T01:23:52;4.90;;;2.50;;
17866;SDS011;9059;49.934;8.650;2023-01-29T01:24:54;5.97;;;2.03;;
17866;SDS011;9059;49.934;8.650;2023-01-29T01:25:56;5.03;;;2.23;;
17866;SDS011;9059;49.934;8.650;2023-01-29T01:26:59;5.13;;;2.30;;
17866;SDS011;9059;49.934;8.650;2023-01-29T01:28:01;4.70;;;2.30;;
17866;SDS011;9059;49.934;8.650;2023-01-29T01:29:03;5.07;;;2.40;;
17866;SDS011;9059;49.934;8.650;2023-01-29T01:30:07;3.97;;;2.30;;
17866;SDS011;9059;49.934;8.650;2023-01-29T01:31:12;4.20;;;2.20;;
17866;SDS011;9059;49.934;8.650;2023-01-29T01:32:14;4.70;;;2.33;;
17866;SDS011;9059;49.934;8.650;2023-01-29T01:33:17;3.63;;;2.17;;
17866;SDS011;9059;49.934;8.650;2023-01-29T01:34:19;6.83;;;2.87;;
17866;SDS011;9059;49.934;8.650;2023-01-29T01:35:22;4.37;;;2.17;;
17866;SDS011;9059;49.934;8.650;2023-01-29T01:36:24;5.77;;;2.27;;
17866;SDS011;9059;49.934;8.650;2023-01-29T01:37:26;4.53;;;2.40;;
17866;SDS011;9059;49.934;8.650;2023-01-29T01:38:29;11.00;;;2.20;;
17866;SDS011;9059;49.934;8.650;2023-01-29T01:39:32;4.27;;;2.33;;
17866;SDS011;9059;49.934;8.650;2023-01-29T01:40:34;4.40;;;2.30;;
17866;SDS011;9059;49.934;8.650;2023-01-29T01:41:37;4.97;;;2.30;;
17866;SDS011;9059;49.934;8.650;2023-01-29T01:42:38;3.30;;;2.10;;
17866;SDS011;9059;49.934;8.650;2023-01-29T01:43:48;5.47;;;2.63;;
17866;SDS011;9059;49.934;8.650;2023-01-29T01:44:52;6.20;;;2.60;;
17866;SDS011;9059;49.934;8.650;2023-01-29T01:45:56;6.30;;;2.23;;
17866;SDS011;9059;49.934;8.650;2023-01-29T01:46:59;5.53;;;2.47;;
17866;SDS011;9059;49.934;8.650;2023-01-29T01:48:02;3.33;;;2.03;;
17866;SDS011;9059;49.934;8.650;2023-01-29T01:49:08;5.83;;;2.57;;
17866;SDS011;9059;49.934;8.650;2023-01-29T01:50:13;4.50;;;2.50;;
17866;SDS011;9059;49.934;8.650;2023-01-29T01:51:17;4.40;;;2.30;;
17866;SDS011;9059;49.934;8.650;2023-01-29T01:52:22;4.97;;;2.20;;
17866;SDS011;9059;49.934;8.650;2023-01-29T01:53:25;6.60;;;2.60;;
17866;SDS011;9059;49.934;8.650;2023-01-29T01:54:32;5.00;;;2.30;;
17866;SDS011;9059;49.934;8.650;2023-01-29T01:55:34;4.57;;;2.37;;
17866;SDS011;9059;49.934;8.650;2023-01-29T01:56:40;3.90;;;2.60;;
17866;SDS011;9059;49.934;8.650;2023-01-29T01:57:44;4.93;;;2.40;;
17866;SDS011;9059;49.934;8.650;2023-01-29T01:58:50;5.10;;;2.47;;
17866;SDS011;9059;49.934;8.650;2023-01-29T01:59:54;6.23;;;2.50;;
17866;SDS011;9059;49.934;8.650;2023-01-29T02:00:59;4.00;;;2.37;;
17866;SDS011;9059;49.934;8.650;2023-01-29T02:02:02;4.93;;;2.47;;
17866;SDS011;9059;49.934;8.650;2023-01-29T02:03:24;4.43;;;2.20;;
17866;SDS011;9059;49.934;8.650;2023-01-29T02:04:45;6.17;;;2.37;;
17866;SDS011;9059;49.934;8.650;2023-01-29T02:06:07;5.10;;;2.57;;
17866;SDS011;9059;49.934;8.650;2023-01-29T02:07:29;6.03;;;2.50;;
17866;SDS011;9059;49.934;8.650;2023-01-29T02:08:50;4.37;;;2.43;;
17866;SDS011;9059;49.934;8.650;2023-01-29T02:10:15;5.33;;;2.40;;
17866;SDS011;9059;49.934;8.650;2023-01-29T02:11:18;4.93;;;2.57;;
17866;SDS011;9059;49.934;8.650;2023-01-29T02:12:20;6.73;;;3.10;;
17866;SDS011;9059;49.934;8.650;2023-01-29T02:13:23;4.77;;;2.60;;
17866;SDS011;9059;49.934;8.650;2023-01-29T02:14:25;6.17;;;2.30;;
17866;SDS011;9059;49.934;8.650;2023-01-29T02:15:28;6.00;;;2.70;;
17866;SDS011;9059;49.934;8.650;2023-01-29T02:16:30;3.77;;;2.33;;
17866;SDS011;9059;49.934;8.650;2023-01-29T02:17:35;5.30;;;2.50;;
17866;SDS011;9059;49.934;8.650;2023-01-29T02:18:37;4.97;;;2.53;;
17866;SDS011;9059;49.934;8.650;2023-01-29T02:19:42;5.33;;;2.37;;
17866;SDS011;9059;49.934;8.650;2023-01-29T02:20:48;7.23;;;2.63;;
17866;SDS011;9059;49.934;8.650;2023-01-29T02:22:11;3.63;;;2.20;;
17866;SDS011;9059;49.934;8.650;2023-01-29T02:23:37;5.33;;;2.47;;
17866;SDS011;9059;49.934;8.650;2023-01-29T02:25:06;4.03;;;2.00;;
17866;SDS011;9059;49.934;8.650;2023-01-29T02:26:43;5.27;;;2.43;;
17866;SDS011;9059;49.934;8.650;2023-01-29T02:28:16;4.93;;;2.40;;
17866;SDS011;9059;49.934;8.650;2023-01-29T02:29:24;3.83;;;2.30;;
17866;SDS011;9059;49.934;8.650;2023-01-29T02:30:35;5.63;;;2.50;;
17866;SDS011;9059;49.934;8.650;2023-01-29T02:31:40;4.97;;;2.47;;
17866;SDS011;9059;49.934;8.650;2023-01-29T02:32:45;6.27;;;2.50;;
17866;SDS011;9059;49.934;8.650;2023-01-29T02:34:01;5.00;;;2.20;;
17866;SDS011;9059;49.934;8.650;2023-01-29T02:35:09;5.00;;;2.30;;
17866;SDS011;9059;49.934;8.650;2023-01-29T02:36:30;3.53;;;1.97;;
17866;SDS011;9059;49.934;8.650;2023-01-29T02:37:35;3.80;;;2.30;;
17866;SDS011;9059;49.934;8.650;2023-01-29T02:38:42;5.20;;;3.10;;
17866;SDS011;9059;49.934;8.650;2023-01-29T02:39:47;5.40;;;2.27;;
17866;SDS011;9059;49.934;8.650;2023-01-29T02:40:55;3.77;;;2.20;;
17866;SDS011;9059;49.934;8.650;2023-01-29T02:41:59;4.70;;;2.20;;
17866;SDS011;9059;49.934;8.650;2023-01-29T02:43:06;4.43;;;2.23;;
17866;SDS011;9059;49.934;8.650;2023-01-29T02:44:19;4.23;;;2.60;;
17866;SDS011;9059;49.934;8.650;2023-01-29T02:45:26;5.53;;;3.13;;
17866;SDS011;9059;49.934;8.650;2023-01-29T02:46:34;5.47;;;2.83;;
17866;SDS011;9059;49.934;8.650;2023-01-29T02:47:40;5.20;;;2.50;;
17866;SDS011;9059;49.934;8.650;2023-01-29T02:48:48;4.63;;;2.50;;
17866;SDS011;9059;49.934;8.650;2023-01-29T02:49:58;4.03;;;2.63;;
17866;SDS011;9059;49.934;8.650;2023-01-29T02:51:03;4.37;;;2.30;;
17866;SDS011;9059;49.934;8.650;2023-01-29T02:52:09;5.47;;;2.43;;
17866;SDS011;9059;49.934;8.650;2023-01-29T02:53:15;6.83;;;3.20;;
17866;SDS011;9059;49.934;8.650;2023-01-29T02:54:20;6.03;;;2.87;;
17866;SDS011;9059;49.934;8.650;2023-01-29T02:55:27;4.07;;;2.30;;
17866;SDS011;9059;49.934;8.650;2023-01-29T02:56:34;4.90;;;2.73;;
17866;SDS011;9059;49.934;8.650;2023-01-29T02:57:38;7.47;;;2.97;;
17866;SDS011;9059;49.934;8.650;2023-01-29T02:58:46;5.47;;;2.87;;
17866;SDS011;9059;49.934;8.650;2023-01-29T02:59:53;5.03;;;2.40;;
17866;SDS011;9059;49.934;8.650;2023-01-29T03:00:59;4.30;;;2.50;;
17866;SDS011;9059;49.934;8.650;2023-01-29T03:02:04;4.30;;;2.20;;
17866;SDS011;9059;49.934;8.650;2023-01-29T03:03:11;4.77;;;2.17;;
17866;SDS011;9059;49.934;8.650;2023-01-29T03:04:15;4.63;;;2.00;;
17866;SDS011;9059;49.934;8.650;2023-01-29T03:05:22;5.43;;;2.23;;
17866;SDS011;9059;49.934;8.650;2023-01-29T03:06:29;3.17;;;1.83;;
17866;SDS011;9059;49.934;8.650;2023-01-29T03:07:35;3.77;;;2.13;;
17866;SDS011;9059;49.934;8.650;2023-01-29T03:08:43;3.10;;;1.83;;
17866;SDS011;9059;49.934;8.650;2023-01-29T03:09:50;3.07;;;1.77;;
17866;SDS011;9059;49.934;8.650;2023-01-29T03:10:54;5.30;;;2.30;;
17866;SDS011;9059;49.934;8.650;2023-01-29T03:12:02;3.10;;;1.87;;
17866;SDS011;9059;49.934;8.650;2023-01-29T03:13:21;3.80;;;2.10;;
17866;SDS011;9059;49.934;8.650;2023-01-29T03:14:30;4.47;;;2.20;;
17866;SDS011;9059;49.934;8.650;2023-01-29T03:16:00;4.57;;;2.57;;
17866;SDS011;9059;49.934;8.650;2023-01-29T03:17:06;3.67;;;2.33;;
17866;SDS011;9059;49.934;8.650;2023-01-29T03:18:10;3.63;;;1.80;;
17866;SDS011;9059;49.934;8.650;2023-01-29T03:19:15;3.23;;;2.13;;
17866;SDS011;9059;49.934;8.650;2023-01-29T03:20:21;3.13;;;2.20;;
17866;SDS011;9059;49.934;8.650;2023-01-29T03:21:28;5.80;;;2.40;;
17866;SDS011;9059;49.934;8.650;2023-01-29T03:22:51;5.03;;;2.50;;
17866;SDS011;9059;49.934;8.650;2023-01-29T03:23:56;3.97;;;2.00;;
17866;SDS011;9059;49.934;8.650;2023-01-29T03:25:17;6.73;;;2.30;;
17866;SDS011;9059;49.934;8.650;2023-01-29T03:26:40;3.67;;;2.10;;
17866;SDS011;9059;49.934;8.650;2023-01-29T03:28:02;3.97;;;2.20;;
17866;SDS011;9059;49.934;8.650;2023-01-29T03:29:23;4.73;;;2.40;;
17866;SDS011;9059;49.934;8.650;2023-01-29T03:30:46;3.67;;;2.47;;
17866;SDS011;9059;49.934;8.650;2023-01-29T03:32:07;6.13;;;2.33;;
17866;SDS011;9059;49.934;8.650;2023-01-29T03:33:11;4.63;;;2.20;;
17866;SDS011;9059;49.934;8.650;2023-01-29T03:34:16;7.20;;;2.40;;
17866;SDS011;9059;49.934;8.650;2023-01-29T03:35:24;8.07;;;2.67;;
17866;SDS011;9059;49.934;8.650;2023-01-29T03:36:35;4.03;;;2.00;;
17866;SDS011;9059;49.934;8.650;2023-01-29T03:37:40;4.33;;;2.60;;
17866;SDS011;9059;49.934;8.650;2023-01-29T03:38:44;5.77;;;2.43;;
17866;SDS011;9059;49.934;8.650;2023-01-29T03:39:46;4.00;;;2.30;;
17866;SDS011;9059;49.934;8.650;2023-01-29T03:40:51;6.03;;;2.30;;
17866;SDS011;9059;49.934;8.650;2023-01-29T03:41:55;4.17;;;2.37;;
17866;SDS011;9059;49.934;8.650;2023-01-29T03:43:02;4.50;;;1.97;;
17866;SDS011;9059;49.934;8.650;2023-01-29T03:44:11;5.27;;;2.23;;
17866;SDS011;9059;49.934;8.650;2023-01-29T03:45:16;5.27;;;1.90;;
17866;SDS011;9059;49.934;8.650;2023-01-29T03:46:29;3.33;;;1.97;;
17866;SDS011;9059;49.934;8.650;2023-01-29T03:47:36;6.17;;;2.63;;
17866;SDS011;9059;49.934;8.650;2023-01-29T03:48:45;7.13;;;2.20;;
17866;SDS011;9059;49.934;8.650;2023-01-29T03:49:55;2.97;;;2.00;;
17866;SDS011;9059;49.934;8.650;2023-01-29T03:51:00;7.17;;;2.30;;
17866;SDS011;9059;49.934;8.650;2023-01-29T03:52:08;4.00;;;2.27;;
17866;SDS011;9059;49.934;8.650;2023-01-29T03:53:18;8.40;;;2.20;;
17866;SDS011;9059;49.934;8.650;2023-01-29T03:54:24;5.40;;;2.10;;
17866;SDS011;9059;49.934;8.650;2023-01-29T03:55:30;4.83;;;2.40;;
17866;SDS011;9059;49.934;8.650;2023-01-29T03:56:38;5.83;;;2.47;;
17866;SDS011;9059;49.934;8.650;2023-01-29T03:57:46;4.43;;;2.30;;
17866;SDS011;9059;49.934;8.650;2023-01-29T03:58:54;4.60;;;2.33;;
17866;SDS011;9059;49.934;8.650;2023-01-29T04:00:01;4.60;;;2.63;;
17866;SDS011;9059;49.934;8.650;2023-01-29T04:01:08;5.17;;;2.17;;
17866;SDS011;9059;49.934;8.650;2023-01-29T04:02:14;4.10;;;2.27;;
17866;SDS011;9059;49.934;8.650;2023-01-29T04:03:19;6.73;;;2.40;;
17866;SDS011;9059;49.934;8.650;2023-01-29T04:04:25;4.20;;;2.47;;
17866;SDS011;9059;49.934;8.650;2023-01-29T04:05:29;3.83;;;2.30;;
17866;SDS011;9059;49.934;8.650;2023-01-29T04:06:35;5.03;;;2.33;;
17866;SDS011;9059;49.934;8.650;2023-01-29T04:07:38;6.33;;;2.67;;
17866;SDS011;9059;49.934;8.650;2023-01-29T04:08:44;4.50;;;2.60;;
17866;SDS011;9059;49.934;8.650;2023-01-29T04:09:48;4.73;;;2.53;;
17866;SDS011;9059;49.934;8.650;2023-01-29T04:10:53;5.90;;;2.40;;
17866;SDS011;9059;49.934;8.650;2023-01-29T04:11:58;4.17;;;2.30;;
17866;SDS011;9059;49.934;8.650;2023-01-29T04:13:04;4.67;;;2.73;;
17866;SDS011;9059;49.934;8.650;2023-01-29T04:14:07;4.27;;;2.77;;
17866;SDS011;9059;49.934;8.650;2023-01-29T04:15:12;7.43;;;2.50;;
17866;SDS011;9059;49.934;8.650;2023-01-29T04:16:17;3.83;;;2.30;;
17866;SDS011;9059;49.934;8.650;2023-01-29T04:17:24;6.10;;;2.50;;
17866;SDS011;9059;49.934;8.650;2023-01-29T04:18:30;4.00;;;2.43;;
17866;SDS011;9059;49.934;8.650;2023-01-29T04:19:32;4.07;;;2.13;;
17866;SDS011;9059;49.934;8.650;2023-01-29T04:20:35;7.40;;;2.83;;
17866;SDS011;9059;49.934;8.650;2023-01-29T04:21:37;4.30;;;2.20;;
17866;SDS011;9059;49.934;8.650;2023-01-29T04:22:41;4.67;;;2.50;;
17866;SDS011;9059;49.934;8.650;2023-01-29T04:23:47;4.10;;;2.57;;
17866;SDS011;9059;49.934;8.650;2023-01-29T04:24:49;5.53;;;2.87;;
17866;SDS011;9059;49.934;8.650;2023-01-29T04:25:53;5.40;;;2.90;;
17866;SDS011;9059;49.934;8.650;2023-01-29T04:27:14;4.50;;;2.53;;
17866;SDS011;9059;49.934;8.650;2023-01-29T04:28:26;7.37;;;2.80;;
17866;SDS011;9059;49.934;8.650;2023-01-29T04:29:33;9.90;;;2.70;;
17866;SDS011;9059;49.934;8.650;2023-01-29T04:30:43;6.97;;;3.03;;
17866;SDS011;9059;49.934;8.650;2023-01-29T04:31:49;7.07;;;3.00;;
17866;SDS011;9059;49.934;8.650;2023-01-29T04:33:05;6.13;;;3.17;;
17866;SDS011;9059;49.934;8.650;2023-01-29T04:34:15;4.10;;;2.63;;
17866;SDS011;9059;49.934;8.650;2023-01-29T04:35:25;4.87;;;2.73;;
17866;SDS011;9059;49.934;8.650;2023-01-29T04:36:32;4.80;;;2.70;;
17866;SDS011;9059;49.934;8.650;2023-01-29T04:37:39;12.07;;;2.90;;
17866;SDS011;9059;49.934;8.650;2023-01-29T04:38:46;3.53;;;2.23;;
17866;SDS011;9059;49.934;8.650;2023-01-29T04:39:55;4.07;;;2.27;;
17866;SDS011;9059;49.934;8.650;2023-01-29T04:41:02;4.67;;;2.43;;
17866;SDS011;9059;49.934;8.650;2023-01-29T04:42:09;7.43;;;2.70;;
17866;SDS011;9059;49.934;8.650;2023-01-29T04:43:14;4.60;;;2.07;;
17866;SDS011;9059;49.934;8.650;2023-01-29T04:44:22;6.00;;;2.70;;
17866;SDS011;9059;49.934;8.650;2023-01-29T04:45:36;4.70;;;2.23;;
17866;SDS011;9059;49.934;8.650;2023-01-29T04:46:46;5.03;;;2.33;;
17866;SDS011;9059;49.934;8.650;2023-01-29T04:47:52;4.83;;;2.53;;
17866;SDS011;9059;49.934;8.650;2023-01-29T04:49:09;4.87;;;2.57;;
17866;SDS011;9059;49.934;8.650;2023-01-29T04:50:15;4.70;;;2.60;;
17866;SDS011;9059;49.934;8.650;2023-01-29T04:51:21;5.30;;;2.90;;
17866;SDS011;9059;49.934;8.650;2023-01-29T04:52:29;4.00;;;2.43;;
17866;SDS011;9059;49.934;8.650;2023-01-29T04:53:36;3.83;;;2.13;;
17866;SDS011;9059;49.934;8.650;2023-01-29T04:54:46;5.40;;;2.70;;
17866;SDS011;9059;49.934;8.650;2023-01-29T04:55:54;6.60;;;2.60;;
17866;SDS011;9059;49.934;8.650;2023-01-29T04:57:01;5.43;;;2.63;;
17866;SDS011;9059;49.934;8.650;2023-01-29T04:58:09;4.93;;;2.47;;
17866;SDS011;9059;49.934;8.650;2023-01-29T04:59:16;3.70;;;2.40;;
17866;SDS011;9059;49.934;8.650;2023-01-29T05:00:22;6.10;;;2.20;;
17866;SDS011;9059;49.934;8.650;2023-01-29T05:01:26;7.33;;;2.90;;
17866;SDS011;9059;49.934;8.650;2023-01-29T05:02:30;6.37;;;2.30;;
17866;SDS011;9059;49.934;8.650;2023-01-29T05:03:33;6.53;;;2.40;;
17866;SDS011;9059;49.934;8.650;2023-01-29T05:04:39;4.83;;;2.37;;
17866;SDS011;9059;49.934;8.650;2023-01-29T05:05:42;5.13;;;2.60;;
17866;SDS011;9059;49.934;8.650;2023-01-29T05:06:47;4.67;;;2.60;;
17866;SDS011;9059;49.934;8.650;2023-01-29T05:07:49;4.57;;;2.63;;
17866;SDS011;9059;49.934;8.650;2023-01-29T05:08:52;5.33;;;2.60;;
17866;SDS011;9059;49.934;8.650;2023-01-29T05:09:55;4.40;;;2.33;;
17866;SDS011;9059;49.934;8.650;2023-01-29T05:10:58;5.70;;;2.63;;
17866;SDS011;9059;49.934;8.650;2023-01-29T05:12:00;4.70;;;2.47;;
17866;SDS011;9059;49.934;8.650;2023-01-29T05:13:04;5.70;;;2.63;;
17866;SDS011;9059;49.934;8.650;2023-01-29T05:14:11;4.73;;;2.30;;
17866;SDS011;9059;49.934;8.650;2023-01-29T05:15:17;4.23;;;2.43;;
17866;SDS011;9059;49.934;8.650;2023-01-29T05:16:21;5.33;;;2.90;;
17866;SDS011;9059;49.934;8.650;2023-01-29T05:17:27;10.50;;;3.20;;
17866;SDS011;9059;49.934;8.650;2023-01-29T05:18:29;5.83;;;3.20;;
17866;SDS011;9059;49.934;8.650;2023-01-29T05:19:32;7.00;;;3.03;;
17866;SDS011;9059;49.934;8.650;2023-01-29T05:20:35;9.27;;;3.30;;
17866;SDS011;9059;49.934;8.650;2023-01-29T05:21:40;5.33;;;3.23;;
17866;SDS011;9059;49.934;8.650;2023-01-29T05:22:44;6.27;;;3.00;;
17866;SDS011;9059;49.934;8.650;2023-01-29T05:25:18;6.60;;;3.47;;
17866;SDS011;9059;49.934;8.650;2023-01-29T05:26:23;6.87;;;3.47;;
17866;SDS011;9059;49.934;8.650;2023-01-29T05:27:43;7.10;;;3.50;;
17866;SDS011;9059;49.934;8.650;2023-01-29T05:29:04;7.13;;;3.67;;
17866;SDS011;9059;49.934;8.650;2023-01-29T05:30:07;5.13;;;2.93;;
17866;SDS011;9059;49.934;8.650;2023-01-29T05:31:10;6.50;;;2.97;;
17866;SDS011;9059;49.934;8.650;2023-01-29T05:32:13;13.57;;;3.50;;
17866;SDS011;9059;49.934;8.650;2023-01-29T05:33:16;6.97;;;3.43;;
17866;SDS011;9059;49.934;8.650;2023-01-29T05:34:20;6.13;;;3.23;;
17866;SDS011;9059;49.934;8.650;2023-01-29T05:35:21;6.30;;;3.40;;
17866;SDS011;9059;49.934;8.650;2023-01-29T05:36:25;5.80;;;3.57;;
17866;SDS011;9059;49.934;8.650;2023-01-29T05:37:27;8.13;;;3.53;;
17866;SDS011;9059;49.934;8.650;2023-01-29T05:38:30;9.37;;;3.47;;
17866;SDS011;9059;49.934;8.650;2023-01-29T05:39:32;7.53;;;3.50;;
17866;SDS011;9059;49.934;8.650;2023-01-29T05:40:35;7.20;;;3.50;;
17866;SDS011;9059;49.934;8.650;2023-01-29T05:41:37;6.93;;;3.20;;
17866;SDS011;9059;49.934;8.650;2023-01-29T05:42:39;6.37;;;3.27;;
17866;SDS011;9059;49.934;8.650;2023-01-29T05:43:41;9.97;;;3.70;;
17866;SDS011;9059;49.934;8.650;2023-01-29T05:44:44;6.63;;;3.50;;
17866;SDS011;9059;49.934;8.650;2023-01-29T05:45:50;9.13;;;3.70;;
17866;SDS011;9059;49.934;8.650;2023-01-29T05:46:53;6.07;;;3.70;;
17866;SDS011;9059;49.934;8.650;2023-01-29T05:47:55;6.20;;;2.70;;
17866;SDS011;9059;49.934;8.650;2023-01-29T05:48:58;6.87;;;3.53;;
17866;SDS011;9059;49.934;8.650;2023-01-29T05:50:00;5.20;;;2.30;;
17866;SDS011;9059;49.934;8.650;2023-01-29T05:51:03;5.50;;;2.80;;
17866;SDS011;9059;49.934;8.650;2023-01-29T05:52:06;5.43;;;2.73;;
17866;SDS011;9059;49.934;8.650;2023-01-29T05:53:09;4.70;;;2.97;;
17866;SDS011;9059;49.934;8.650;2023-01-29T05:54:12;4.87;;;2.50;;
17866;SDS011;9059;49.934;8.650;2023-01-29T05:55:14;4.57;;;2.37;;
17866;SDS011;9059;49.934;8.650;2023-01-29T05:56:17;6.20;;;2.33;;
17866;SDS011;9059;49.934;8.650;2023-01-29T05:57:19;5.77;;;2.77;;
17866;SDS011;9059;49.934;8.650;2023-01-29T05:58:22;4.73;;;2.50;;
17866;SDS011;9059;49.934;8.650;2023-01-29T05:59:24;3.80;;;2.37;;
17866;SDS011;9059;49.934;8.650;2023-01-29T06:00:27;3.53;;;2.17;;
17866;SDS011;9059;49.934;8.650;2023-01-29T06:01:28;4.97;;;2.57;;
17866;SDS011;9059;49.934;8.650;2023-01-29T06:02:31;5.53;;;2.67;;
17866;SDS011;9059;49.934;8.650;2023-01-29T06:03:33;3.60;;;2.17;;
17866;SDS011;9059;49.934;8.650;2023-01-29T06:04:39;3.60;;;2.00;;
17866;SDS011;9059;49.934;8.650;2023-01-29T06:05:40;5.23;;;2.17;;
17866;SDS011;9059;49.934;8.650;2023-01-29T06:06:43;4.33;;;2.10;;
17866;SDS011;9059;49.934;8.650;2023-01-29T06:07:46;3.83;;;2.17;;
17866;SDS011;9059;49.934;8.650;2023-01-29T06:08:51;3.57;;;1.90;;
17866;SDS011;9059;49.934;8.650;2023-01-29T06:09:53;3.17;;;1.90;;
17866;SDS011;9059;49.934;8.650;2023-01-29T06:10:56;6.20;;;2.43;;
17866;SDS011;9059;49.934;8.650;2023-01-29T06:11:58;3.33;;;2.13;;
17866;SDS011;9059;49.934;8.650;2023-01-29T06:13:00;3.47;;;2.23;;
17866;SDS011;9059;49.934;8.650;2023-01-29T06:14:02;3.17;;;2.00;;
17866;SDS011;9059;49.934;8.650;2023-01-29T06:15:05;4.13;;;2.03;;
17866;SDS011;9059;49.934;8.650;2023-01-29T06:16:08;3.77;;;1.97;;
17866;SDS011;9059;49.934;8.650;2023-01-29T06:17:12;5.07;;;1.83;;
17866;SDS011;9059;49.934;8.650;2023-01-29T06:18:13;4.73;;;2.20;;
17866;SDS011;9059;49.934;8.650;2023-01-29T06:19:16;5.50;;;2.40;;
17866;SDS011;9059;49.934;8.650;2023-01-29T06:20:18;4.27;;;2.20;;
17866;SDS011;9059;49.934;8.650;2023-01-29T06:21:21;4.37;;;2.30;;
17866;SDS011;9059;49.934;8.650;2023-01-29T06:22:23;4.17;;;2.30;;
17866;SDS011;9059;49.934;8.650;2023-01-29T06:23:27;3.10;;;1.80;;
17866;SDS011;9059;49.934;8.650;2023-01-29T06:24:29;4.13;;;2.10;;
17866;SDS011;9059;49.934;8.650;2023-01-29T06:25:33;2.57;;;1.90;;
17866;SDS011;9059;49.934;8.650;2023-01-29T06:26:34;6.23;;;2.27;;
17866;SDS011;9059;49.934;8.650;2023-01-29T06:27:37;4.27;;;2.53;;
17866;SDS011;9059;49.934;8.650;2023-01-29T06:28:39;6.17;;;2.93;;
17866;SDS011;9059;49.934;8.650;2023-01-29T06:29:42;9.33;;;3.00;;
17866;SDS011;9059;49.934;8.650;2023-01-29T06:30:45;7.40;;;3.30;;
17866;SDS011;9059;49.934;8.650;2023-01-29T06:31:47;5.00;;;2.97;;
17866;SDS011;9059;49.934;8.650;2023-01-29T06:32:50;5.40;;;3.30;;
17866;SDS011;9059;49.934;8.650;2023-01-29T06:33:51;6.27;;;2.73;;
17866;SDS011;9059;49.934;8.650;2023-01-29T06:34:54;5.67;;;2.73;;
17866;SDS011;9059;49.934;8.650;2023-01-29T06:35:56;7.07;;;3.20;;
17866;SDS011;9059;49.934;8.650;2023-01-29T06:36:59;4.13;;;2.60;;
17866;SDS011;9059;49.934;8.650;2023-01-29T06:38:00;5.83;;;3.27;;
17866;SDS011;9059;49.934;8.650;2023-01-29T06:39:04;4.83;;;2.60;;
17866;SDS011;9059;49.934;8.650;2023-01-29T06:40:07;8.00;;;2.87;;
17866;SDS011;9059;49.934;8.650;2023-01-29T06:41:11;6.93;;;2.53;;
17866;SDS011;9059;49.934;8.650;2023-01-29T06:42:13;4.97;;;2.87;;
17866;SDS011;9059;49.934;8.650;2023-01-29T06:43:16;8.43;;;3.23;;
17866;SDS011;9059;49.934;8.650;2023-01-29T06:44:17;5.93;;;3.00;;